KCOF/COF METAR and TAF weather

Enter ICAO airport designator
Station Type Date Time Source
KCOF METAR 2018/01/19 16:56 UTC NOAA

KCOF 191656Z AUTO 33007KT 10SM CLR 16/08 A3032 RMK AO2 SLP272 T01570084 $


Station Type Date Time Source
KCOF Decoded METAR 2018/01/19 16:56 UTC NOAA

Cocoa / Patrick Air Force Base, FL, United States (KCOF) 28-14N 080-36W 3M
Jan 19, 2018 - 11:56 AM EST / 2018.01.19 1656 UTC
Wind: from the NNW (330 degrees) at 8 MPH (7 KT):0
Visibility: 10 mile(s):0
Sky conditions: clear
Temperature: 60.3 F (15.7 C)
Dew Point: 47.1 F (8.4 C)
Relative Humidity: 61%
Pressure (altimeter): 30.32 in. Hg (1026 hPa)
ob: KCOF 191656Z AUTO 33007KT 10SM CLR 16/08 A3032 RMK AO2 SLP272 T01570084
cycle: 17

Station Type Date Time Source
KCOF TAF 2018/01/19 04:34 UTC NOAA

TAF
AMD KCOF 190430Z 1904/2009 34010G20KT 9999 FEW020 QNH3033INS
BECMG 1918/1919 02006KT 9999 SKC QNH3027INS TX15/1919Z TN05/1911Z FCST BY USAF WX MET TECH LAST NO
AMDS AFT 1903 NEXT 1918


Example: see airport list